Aérodrome :
LOGIN :

S'inscrire | Disclaimer

   EN    FR    IT 

 










Légende :    VFR   VFR Marginal   IFR   IFR Intensif   IFR Très Intensif
Visi : 
Plafond : 
>= 8 km
>= 3000ft
5 à 8 km
1000 à 3000 ft
1500m à 5 km
500 à 1000 ft
800 à 1500m
200 à 500 ft
< 800m
< 200 ft
Symboles :   Orages  Brouillard  Fortes neiges  Fortes précipitations  Vent > 20 kt
SIGMETs :   Divers  Orages  Givrage  Turbulence  Onde Orograph.  Cendres Volcan.







- Altitude de l'aérodrome : 1197 ft
- Code IATA : SPM


ETAD - Spangdahlem Ab

DERNIER METAR :
  • 231456Z AUTO 22010KT 9999 OVC025 06/04 A3020 RMK AO2 CIG 024 RWY05 SLP229 60000 T00630040 56009 TSNO $

METARs EXPIRÉS :
  • 231426Z AUTO 22012KT 9999 FEW013 BKN028 07/04 A3021 RMK AO2 CIG 027 RWY05 SLP233 TSNO $
  • 231411Z AUTO 22012KT 9999 SCT013 BKN019 OVC028 06/05 A3020 RMK AO2 CIG 011V019 SLP229 TSNO $
  • 231356Z AUTO 23012KT 9999 BKN014 BKN021 OVC030 06/05 A3020 RMK AO2 DZB18E28 CIG 013 RWY05 SLP231 P0000 T00630046 TSNO $
  • 231344Z AUTO 22011KT 9999 BKN014 OVC032 06/05 A3021 RMK AO2 DZB18E28 CIG 012 RWY05 SLP234 TSNO $
  • 231329Z AUTO 23011KT 9999 FEW011 SCT016 OVC033 06/05 A3020 RMK AO2 DZB18E28 SLP231 TSNO $
  • 231318Z AUTO 22011KT 9999 -DZ FEW010 SCT014 SCT023 OVC033 06/05 A3021 RMK AO2 DZB18 SLP233 TSNO $
  • 231256Z 22012KT 9999 SCT013 OVC034 06/04 A3021 RMK AO2A SLP233 T00610044 TSNO $

TAF AMD TAF ETAD
Valide du 23 à 14h jusqu'au 24 à 17h UTC


231439Z 2314/2417 21008KT 9999 BKN028 QNH3020INS
BECMG 2315/2316 24010G15KT 6000 -RA OVC010 620604 QNH3019INS
BECMG 2323/2324 21009KT 5000 BR OVC009 620604 QNH3014INS
BECMG 2410/2411 21009KT 9000 -SHRA OVC010 QNH3001INS
TEMPO 2411/2416 24020G30KT TX08/2315Z TN05/2410Z
Pas de NOTAMs connus pour ce terrain.



MET'MAP, la Météo Aéronautique d'un coup d'oeil ! - Copyright ORBIFLY Décembre 2007 - Disclaimer

ORBIFLY MET'MAP TEAM :

Programmation & Développement : Alexandra Zaïnal
Conception & Développement : Baudouin d'Aumeries
Co-Programmation & Développement : Marc-Olivier Méhu
Soutien technique & logistique : Manuel Goepfert

Contact : metmap@orbifly.com




SOURCES & CREDITS :

   NOAA